Terminal Aerodrome Forecast
Issued by NWS

Home | Current Version | Previous Version | Graphics & Text | Print | Product List | Glossary On
Versions: 1 2 3 4 5 6 7 8 9 10 11 12 13 14 15 16 17 18 19
000
FTUS42 KMHX 230500
TAFOAJ
TAF
KOAJ 230537Z 2306/2406 VRB03KT P6SM SCT015
     FM230800 20003KT 4SM BR BKN010
      TEMPO 2309/2312 3SM BR BKN007
     FM231300 21006KT P6SM SCT025
     FM231500 24007KT P6SM VCTS SCT020 BKN035CB
     FM232300 21003KT P6SM SCT025 BKN100
      AMD LTD TO CLD VIS AND WIND=

USA.gov is the U.S. government's official web portal to all federal, state and local government web resources and services.